createdAt,value
2018-11-13T00:00:18.493Z,12.34
2018-11-13T00:01:18.551Z,12.38
2018-11-13T00:02:18.606Z,12.33
2018-11-13T00:03:18.666Z,12.26
2018-11-13T00:04:18.723Z,12.25
2018-11-13T00:05:18.783Z,12.38
2018-11-13T00:06:18.841Z,12.37
2018-11-13T00:07:18.899Z,12.43
2018-11-13T00:08:18.959Z,12.48
2018-11-13T00:09:19.016Z,12.40
2018-11-13T00:10:19.074Z,12.37
2018-11-13T00:11:19.148Z,12.34
2018-11-13T00:12:19.193Z,12.34
2018-11-13T00:13:19.250Z,12.31
2018-11-13T00:14:19.308Z,12.30
2018-11-13T00:15:19.366Z,12.33
2018-11-13T00:16:19.424Z,12.25
2018-11-13T00:17:19.482Z,12.34
2018-11-13T00:18:19.540Z,12.36
2018-11-13T00:19:19.599Z,12.41
2018-11-13T00:20:19.658Z,12.37
2018-11-13T00:21:19.866Z,12.34
2018-11-13T00:22:19.774Z,12.29
2018-11-13T00:23:19.833Z,12.31
2018-11-13T00:24:19.895Z,12.41
2018-11-13T00:25:19.949Z,12.36
2018-11-13T00:26:20.008Z,12.37
2018-11-13T00:27:20.083Z,12.34
2018-11-13T00:28:20.126Z,12.34
2018-11-13T00:29:20.239Z,12.33
2018-11-13T00:30:20.241Z,12.33
2018-11-13T00:31:20.299Z,12.30
2018-11-13T00:32:20.357Z,12.29
2018-11-13T00:33:20.416Z,12.34
2018-11-13T00:34:20.473Z,12.33
2018-11-13T00:35:20.533Z,12.26
2018-11-13T00:36:20.591Z,12.19
2018-11-13T00:37:20.648Z,12.11
2018-11-13T00:38:20.707Z,12.11
2018-11-13T00:39:21.157Z,12.19
2018-11-13T00:40:20.823Z,12.21
2018-11-13T00:41:20.881Z,12.29
2018-11-13T00:42:21.189Z,12.26
2018-11-13T00:43:20.998Z,12.26
2018-11-13T00:44:21.055Z,12.21
2018-11-13T00:45:21.161Z,12.12
2018-11-13T00:46:21.173Z,12.13
2018-11-13T00:47:21.230Z,12.16
2018-11-13T00:48:21.295Z,12.15
2018-11-13T00:49:21.346Z,12.11
2018-11-13T00:50:21.406Z,12.15
2018-11-13T00:51:21.464Z,12.19
2018-11-13T00:52:21.521Z,12.08
2018-11-13T00:53:21.581Z,12.15
2018-11-13T00:54:21.638Z,12.16
2018-11-13T00:55:21.697Z,12.15
2018-11-13T00:56:21.756Z,12.07
2018-11-13T00:57:21.812Z,12.18
2018-11-13T00:58:21.871Z,12.15
2018-11-13T00:59:21.939Z,12.11
2018-11-13T01:00:22.093Z,12.03
2018-11-13T01:01:22.046Z,11.98
2018-11-13T01:02:22.104Z,12.01
2018-11-13T01:03:22.163Z,12.04
2018-11-13T01:04:22.221Z,12.00
2018-11-13T01:05:22.397Z,12.00
2018-11-13T01:06:22.339Z,12.04
2018-11-13T01:07:22.396Z,12.05
2018-11-13T01:08:22.454Z,12.00
2018-11-13T01:09:22.515Z,12.08
2018-11-13T01:10:22.571Z,12.01
2018-11-13T01:11:22.628Z,12.03
2018-11-13T01:12:22.688Z,11.97
2018-11-13T01:13:22.749Z,12.01
2018-11-13T01:14:22.803Z,11.90
2018-11-13T01:15:22.862Z,11.85
2018-11-13T01:16:22.920Z,11.94
2018-11-13T01:17:23.264Z,11.90
2018-11-13T01:18:23.035Z,11.85
2018-11-13T01:19:23.094Z,11.94
2018-11-13T01:20:23.152Z,11.87
2018-11-13T01:21:23.218Z,11.87
2018-11-13T01:22:23.274Z,11.96
2018-11-13T01:23:23.676Z,11.88
2018-11-13T01:24:23.390Z,11.90
2018-11-13T01:25:23.441Z,11.90
2018-11-13T01:26:23.501Z,11.93
2018-11-13T01:27:23.559Z,11.90
2018-11-13T01:28:23.616Z,11.87
2018-11-13T01:29:23.674Z,11.93
2018-11-13T01:30:23.733Z,11.96
2018-11-13T01:31:23.792Z,11.82
2018-11-13T01:32:23.850Z,11.84
2018-11-13T01:33:23.908Z,11.85
2018-11-13T01:34:23.966Z,11.87
2018-11-13T01:35:24.023Z,11.87
2018-11-13T01:36:24.083Z,11.93
2018-11-13T01:37:24.139Z,12.00
2018-11-13T01:38:24.197Z,11.87
2018-11-13T01:39:24.256Z,11.90
2018-11-13T01:40:24.314Z,11.87
2018-11-13T01:41:24.371Z,11.96
2018-11-13T01:42:24.430Z,11.87
2018-11-13T01:43:24.488Z,11.90
2018-11-13T01:44:24.545Z,11.87
2018-11-13T01:45:24.607Z,11.94
2018-11-13T01:46:24.662Z,11.87
2018-11-13T01:47:24.721Z,11.79
2018-11-13T01:48:24.779Z,11.81
2018-11-13T01:49:24.846Z,11.82
2018-11-13T01:50:24.894Z,11.81
2018-11-13T01:51:24.951Z,11.84
2018-11-13T01:52:25.010Z,11.77
2018-11-13T01:53:25.071Z,11.90
2018-11-13T01:54:25.163Z,11.88
2018-11-13T01:55:25.185Z,11.82
2018-11-13T01:56:25.244Z,11.79
2018-11-13T01:57:25.384Z,11.85
2018-11-13T01:58:25.359Z,11.88
2018-11-13T01:59:25.438Z,11.82
2018-11-13T02:00:25.475Z,11.93
2018-11-13T02:01:25.532Z,11.90
2018-11-13T02:02:25.591Z,11.93
2018-11-13T02:03:25.649Z,11.85
2018-11-13T02:04:25.707Z,11.97
2018-11-13T02:05:25.764Z,11.90
2018-11-13T02:06:25.826Z,12.03
2018-11-13T02:07:25.880Z,12.01
2018-11-13T02:08:25.939Z,12.03
2018-11-13T02:09:25.995Z,12.08
2018-11-13T02:10:26.060Z,12.13
2018-11-13T02:11:26.112Z,12.22
2018-11-13T02:12:26.171Z,12.29
2018-11-13T02:13:26.379Z,12.31
2018-11-13T02:14:26.286Z,12.34
2018-11-13T02:15:26.344Z,12.29
2018-11-13T02:16:26.402Z,12.22
2018-11-13T02:17:26.462Z,12.15
2018-11-13T02:18:26.519Z,12.08
2018-11-13T02:19:26.577Z,12.08
2018-11-13T02:20:26.635Z,12.12
2018-11-13T02:21:26.692Z,12.19
2018-11-13T02:22:26.773Z,12.13
2018-11-13T02:23:26.808Z,12.16
2018-11-13T02:24:26.867Z,12.13
2018-11-13T02:25:26.924Z,12.05
2018-11-13T02:26:26.984Z,12.13
2018-11-13T02:27:27.041Z,12.07
2018-11-13T02:28:27.099Z,12.23
2018-11-13T02:29:27.156Z,12.16
2018-11-13T02:30:27.216Z,12.22
2018-11-13T02:31:27.273Z,12.23
2018-11-13T02:32:27.331Z,12.31
2018-11-13T02:33:27.388Z,12.22
2018-11-13T02:34:27.447Z,12.26
2018-11-13T02:35:27.568Z,12.33
2018-11-13T02:36:27.564Z,12.34
2018-11-13T02:37:27.621Z,12.25
2018-11-13T02:38:27.679Z,12.31
2018-11-13T02:39:27.737Z,12.31
2018-11-13T02:40:27.796Z,12.33
2018-11-13T02:41:27.853Z,12.36
2018-11-13T02:42:27.911Z,12.25
2018-11-13T02:43:27.968Z,12.30
2018-11-13T02:44:28.027Z,12.36
2018-11-13T02:45:28.086Z,12.21
2018-11-13T02:46:28.144Z,12.29
2018-11-13T02:47:28.202Z,12.16
2018-11-13T02:48:28.259Z,12.19
2018-11-13T02:49:28.315Z,12.25
2018-11-13T02:50:28.380Z,12.31
2018-11-13T02:51:28.432Z,12.36
2018-11-13T02:52:28.491Z,12.34
2018-11-13T02:53:28.547Z,12.40
2018-11-13T02:54:28.610Z,12.38
2018-11-13T02:55:28.665Z,12.33
2018-11-13T02:56:28.725Z,12.21
2018-11-13T02:57:28.782Z,12.31
2018-11-13T02:58:28.839Z,12.25
2018-11-13T02:59:28.897Z,12.34
2018-11-13T03:00:28.955Z,12.36
2018-11-13T03:01:29.013Z,12.29
2018-11-13T03:02:29.072Z,12.22
2018-11-13T03:03:29.129Z,12.33
2018-11-13T03:04:29.187Z,12.31
2018-11-13T03:05:29.246Z,12.26
2018-11-13T03:06:29.304Z,12.21
2018-11-13T03:07:29.361Z,12.33
2018-11-13T03:08:29.418Z,12.31
2018-11-13T03:09:29.477Z,12.25
2018-11-13T03:10:29.534Z,12.19
2018-11-13T03:11:29.593Z,12.19
2018-11-13T03:12:29.652Z,12.21
2018-11-13T03:13:29.726Z,12.31
2018-11-13T03:14:29.767Z,12.21
2018-11-13T03:15:29.825Z,12.23
2018-11-13T03:16:29.884Z,12.16
2018-11-13T03:17:29.941Z,12.21
2018-11-13T03:18:30.000Z,12.22
2018-11-13T03:19:30.057Z,12.29
2018-11-13T03:20:30.116Z,12.18
2018-11-13T03:21:30.173Z,12.08
2018-11-13T03:22:30.231Z,12.25
2018-11-13T03:23:30.290Z,12.16
2018-11-13T03:24:30.348Z,12.23
2018-11-13T03:25:30.404Z,12.15
2018-11-13T03:26:30.463Z,12.18
2018-11-13T03:27:30.521Z,12.19
2018-11-13T03:28:30.581Z,12.26
2018-11-13T03:29:30.636Z,12.19
2018-11-13T03:30:30.697Z,12.25
2018-11-13T03:31:30.795Z,12.22
2018-11-13T03:32:30.810Z,12.31
2018-11-13T03:33:30.868Z,12.21
2018-11-13T03:34:30.926Z,12.22
2018-11-13T03:35:30.985Z,12.05
2018-11-13T03:36:31.042Z,12.25
2018-11-13T03:37:31.100Z,12.18
2018-11-13T03:38:31.158Z,12.13
2018-11-13T03:39:31.217Z,12.15
2018-11-13T03:40:31.275Z,12.13
2018-11-13T03:41:31.333Z,12.11
2018-11-13T03:42:31.391Z,12.13
2018-11-13T03:43:31.449Z,12.13
2018-11-13T03:44:31.507Z,12.21
2018-11-13T03:45:31.564Z,12.19
2018-11-13T03:46:31.623Z,12.23
2018-11-13T03:47:31.682Z,12.19
2018-11-13T03:48:31.743Z,12.21
2018-11-13T03:49:31.797Z,12.21
2018-11-13T03:50:31.854Z,12.22
2018-11-13T03:51:31.912Z,12.16
2018-11-13T03:52:31.973Z,12.23
2018-11-13T03:53:32.028Z,12.13
2018-11-13T03:54:32.087Z,12.18
2018-11-13T03:55:32.143Z,12.05
2018-11-13T03:56:32.203Z,12.00
2018-11-13T03:57:32.261Z,11.98
2018-11-13T03:58:32.318Z,12.05
2018-11-13T03:59:32.377Z,12.05
2018-11-13T04:00:32.434Z,12.07
2018-11-13T04:01:32.492Z,12.12
2018-11-13T04:02:32.549Z,12.15
2018-11-13T04:03:32.609Z,12.16
2018-11-13T04:04:32.668Z,12.07
2018-11-13T04:05:32.725Z,12.13
2018-11-13T04:06:32.785Z,12.01
2018-11-13T04:07:32.842Z,12.00
2018-11-13T04:08:32.899Z,11.98
2018-11-13T04:09:32.956Z,12.11
2018-11-13T04:10:33.016Z,12.19
2018-11-13T04:11:33.073Z,12.16
2018-11-13T04:12:33.132Z,12.08
2018-11-13T04:13:33.189Z,12.12
2018-11-13T04:14:33.247Z,12.12
2018-11-13T04:15:33.306Z,12.12
2018-11-13T04:16:33.367Z,12.05
2018-11-13T04:17:33.421Z,12.05
2018-11-13T04:18:33.481Z,11.90
2018-11-13T04:19:33.538Z,12.00
2018-11-13T04:20:33.601Z,12.00
2018-11-13T04:21:33.654Z,12.01
2018-11-13T04:22:33.712Z,12.00
2018-11-13T04:23:33.771Z,12.08
2018-11-13T04:24:33.830Z,12.00
2018-11-13T04:25:33.897Z,12.04
2018-11-13T04:26:33.945Z,12.15
2018-11-13T04:27:34.003Z,12.03
2018-11-13T04:28:34.062Z,12.08
2018-11-13T04:29:34.119Z,12.12
2018-11-13T04:30:34.319Z,12.16
2018-11-13T04:31:34.235Z,12.13
2018-11-13T04:32:34.294Z,12.22
2018-11-13T04:33:34.352Z,12.23
2018-11-13T04:34:34.410Z,12.33
2018-11-13T04:35:34.719Z,12.33
2018-11-13T04:36:34.528Z,12.25
2018-11-13T04:37:34.584Z,12.30
2018-11-13T04:38:34.641Z,12.37
2018-11-13T04:39:34.704Z,12.43
2018-11-13T04:40:34.759Z,12.51
2018-11-13T04:41:34.814Z,12.33
2018-11-13T04:42:34.873Z,12.31
2018-11-13T04:43:34.933Z,12.23
2018-11-13T04:44:34.995Z,12.13
2018-11-13T04:45:35.049Z,12.16
2018-11-13T04:46:35.108Z,12.01
2018-11-13T04:47:35.166Z,12.07
2018-11-13T04:48:35.222Z,12.03
2018-11-13T04:49:35.281Z,12.00
2018-11-13T04:50:35.338Z,12.05
2018-11-13T04:51:35.510Z,12.04
2018-11-13T04:52:35.454Z,12.01
2018-11-13T04:53:35.513Z,11.94
2018-11-13T04:54:35.571Z,12.03
2018-11-13T04:55:35.629Z,11.98
2018-11-13T04:56:35.689Z,12.12
2018-11-13T04:57:35.750Z,12.13
2018-11-13T04:58:35.802Z,12.16
2018-11-13T04:59:35.862Z,12.07
2018-11-13T05:00:35.929Z,12.16
2018-11-13T05:01:35.978Z,12.13
2018-11-13T05:02:36.040Z,12.11
2018-11-13T05:03:36.097Z,12.05
2018-11-13T05:04:36.154Z,12.03
2018-11-13T05:05:36.210Z,12.11
2018-11-13T05:06:36.268Z,12.08
2018-11-13T05:07:36.327Z,12.22
2018-11-13T05:08:36.387Z,12.22
2018-11-13T05:09:36.441Z,12.26
2018-11-13T05:10:36.520Z,12.25
2018-11-13T05:11:36.560Z,12.03
2018-11-13T05:12:36.617Z,11.90
2018-11-13T05:13:36.674Z,11.87
2018-11-13T05:14:36.732Z,11.93
2018-11-13T05:15:36.792Z,12.01
2018-11-13T05:16:36.850Z,12.05
2018-11-13T05:17:36.907Z,12.07
2018-11-13T05:18:36.965Z,12.01
2018-11-13T05:19:37.023Z,12.04
2018-11-13T05:20:37.082Z,12.04
2018-11-13T05:21:37.153Z,12.07
2018-11-13T05:22:37.199Z,12.19
2018-11-13T05:23:37.257Z,12.16
2018-11-13T05:24:37.315Z,12.12
2018-11-13T05:25:37.372Z,12.16
2018-11-13T05:26:37.433Z,12.03
2018-11-13T05:27:37.489Z,12.13
2018-11-13T05:28:37.546Z,12.18
2018-11-13T05:29:37.604Z,12.16
2018-11-13T05:30:37.663Z,12.05
2018-11-13T05:31:37.721Z,12.03
2018-11-13T05:32:37.781Z,11.88
2018-11-13T05:33:37.838Z,11.93
2018-11-13T05:34:37.895Z,11.84
2018-11-13T05:35:37.953Z,11.88
2018-11-13T05:36:38.012Z,11.90
2018-11-13T05:37:38.073Z,11.88
2018-11-13T05:38:38.791Z,11.93
2018-11-13T05:39:38.185Z,11.94
2018-11-13T05:40:38.244Z,11.88
2018-11-13T05:41:38.345Z,11.90
2018-11-13T05:42:38.360Z,11.88
2018-11-13T05:43:38.418Z,11.87
2018-11-13T05:44:38.476Z,11.87
2018-11-13T05:45:38.533Z,11.82
2018-11-13T05:46:38.595Z,11.78
2018-11-13T05:47:38.650Z,11.77
2018-11-13T05:48:38.718Z,11.78
2018-11-13T05:49:38.766Z,11.77
2018-11-13T05:50:38.824Z,11.79
2018-11-13T05:51:38.883Z,11.75
2018-11-13T05:52:38.941Z,11.84
2018-11-13T05:53:38.997Z,11.79
2018-11-13T05:54:39.057Z,11.78
2018-11-13T05:55:39.115Z,11.85
2018-11-13T05:56:39.173Z,11.85
2018-11-13T05:57:39.233Z,11.87
2018-11-13T05:58:39.289Z,11.87
2018-11-13T05:59:39.392Z,11.85
2018-11-13T06:00:39.407Z,11.98
2018-11-13T06:01:39.463Z,12.01
2018-11-13T06:02:39.520Z,12.05
2018-11-13T06:03:39.580Z,12.11
2018-11-13T06:04:39.637Z,12.04
2018-11-13T06:05:39.695Z,12.11
2018-11-13T06:06:39.752Z,12.05
2018-11-13T06:07:39.812Z,12.04
2018-11-13T06:08:39.984Z,12.00
2018-11-13T06:09:39.932Z,12.03
2018-11-13T06:10:39.984Z,12.04
2018-11-13T06:11:40.044Z,12.13
2018-11-13T06:12:40.102Z,12.12
2018-11-13T06:13:40.159Z,12.13
2018-11-13T06:14:40.217Z,12.13
2018-11-13T06:15:40.276Z,12.00
2018-11-13T06:16:40.337Z,12.01
2018-11-13T06:17:40.394Z,11.90
2018-11-13T06:18:40.449Z,11.98
2018-11-13T06:19:40.509Z,11.94
2018-11-13T06:20:40.567Z,11.85
2018-11-13T06:21:40.625Z,11.79
2018-11-13T06:22:40.685Z,11.81
2018-11-13T06:23:40.742Z,11.79
2018-11-13T06:24:40.799Z,11.81
2018-11-13T06:25:40.856Z,11.79
2018-11-13T06:26:40.915Z,11.85
2018-11-13T06:27:41.691Z,11.79
2018-11-13T06:28:41.729Z,12.00
2018-11-13T06:29:41.627Z,11.90
2018-11-13T06:30:41.676Z,11.87
2018-11-13T06:31:41.811Z,11.87
2018-11-13T06:32:41.762Z,11.85
2018-11-13T06:33:42.097Z,11.96
2018-11-13T06:34:42.044Z,11.93
2018-11-13T06:35:42.061Z,11.90
2018-11-13T06:36:42.087Z,11.90
2018-11-13T06:37:42.246Z,11.90
2018-11-13T06:38:42.407Z,11.84
2018-11-13T06:39:41.671Z,11.88
2018-11-13T06:40:41.727Z,11.82
2018-11-13T06:41:41.787Z,11.87
2018-11-13T06:42:41.844Z,12.00
2018-11-13T06:43:41.901Z,12.01
2018-11-13T06:44:41.959Z,11.98
2018-11-13T06:45:42.020Z,12.01
2018-11-13T06:46:42.075Z,12.03
2018-11-13T06:47:42.142Z,12.01
2018-11-13T06:48:42.192Z,12.03
2018-11-13T06:49:42.340Z,12.05
2018-11-13T06:50:42.308Z,12.00
2018-11-13T06:51:42.365Z,12.00
2018-11-13T06:52:42.429Z,11.96
2018-11-13T06:53:42.514Z,11.90
2018-11-13T06:54:42.539Z,11.82
2018-11-13T06:55:42.595Z,11.75
2018-11-13T06:56:42.654Z,11.75
2018-11-13T06:57:42.713Z,11.75
2018-11-13T06:58:42.771Z,11.81
2018-11-13T06:59:42.828Z,11.96
2018-11-13T07:00:42.886Z,12.04
2018-11-13T07:01:42.944Z,12.01
2018-11-13T07:02:43.044Z,12.00
2018-11-13T07:03:43.060Z,11.87
2018-11-13T07:04:43.118Z,11.93
2018-11-13T07:05:43.175Z,11.84
2018-11-13T07:06:43.234Z,11.94
2018-11-13T07:07:43.296Z,11.74
2018-11-13T07:08:43.350Z,11.70
2018-11-13T07:09:43.407Z,11.67
2018-11-13T07:10:43.483Z,11.64
2018-11-13T07:11:43.532Z,11.75
2018-11-13T07:12:43.582Z,11.67
2018-11-13T07:13:43.639Z,11.79
2018-11-13T07:14:43.699Z,11.77
2018-11-13T07:15:43.756Z,11.82
2018-11-13T07:16:43.814Z,11.78
2018-11-13T07:17:43.872Z,11.81
2018-11-13T07:18:43.930Z,11.77
2018-11-13T07:19:44.113Z,11.72
2018-11-13T07:20:44.046Z,11.74
2018-11-13T07:21:44.104Z,11.75
2018-11-13T07:22:44.165Z,11.78
2018-11-13T07:23:44.219Z,11.81
2018-11-13T07:24:44.279Z,11.79
2018-11-13T07:25:44.335Z,11.72
2018-11-13T07:26:44.393Z,11.81
2018-11-13T07:27:44.545Z,11.82
2018-11-13T07:28:44.532Z,11.81
2018-11-13T07:29:44.566Z,11.78
2018-11-13T07:30:44.625Z,11.93
2018-11-13T07:31:44.685Z,11.75
2018-11-13T07:32:44.745Z,11.75
2018-11-13T07:33:44.801Z,11.70
2018-11-13T07:34:44.857Z,11.74
2018-11-13T07:35:44.916Z,11.72
2018-11-13T07:36:44.976Z,11.85
2018-11-13T07:37:45.032Z,11.82
2018-11-13T07:38:45.091Z,11.84
2018-11-13T07:39:45.149Z,11.78
2018-11-13T07:40:45.205Z,11.75
2018-11-13T07:41:45.264Z,11.82
2018-11-13T07:42:45.321Z,11.87
2018-11-13T07:43:45.379Z,11.93
2018-11-13T07:44:45.438Z,11.90
2018-11-13T07:45:45.499Z,12.05
2018-11-13T07:46:45.664Z,12.03
2018-11-13T07:47:45.857Z,12.11
2018-11-13T07:48:45.673Z,12.01
2018-11-13T07:49:45.728Z,12.05
2018-11-13T07:50:45.856Z,11.96
2018-11-13T07:51:45.844Z,11.93
2018-11-13T07:52:45.909Z,11.97
2018-11-13T07:53:46.015Z,12.04
2018-11-13T07:54:46.018Z,12.11
2018-11-13T07:55:46.077Z,12.25
2018-11-13T07:56:46.137Z,12.30
2018-11-13T07:57:46.251Z,12.46
2018-11-13T07:58:46.250Z,12.54
2018-11-13T07:59:46.308Z,12.46
2018-11-13T08:00:46.368Z,12.37
2018-11-13T08:01:46.424Z,12.33
2018-11-13T08:02:46.482Z,12.18
2018-11-13T08:03:46.635Z,12.34
2018-11-13T08:04:46.599Z,12.55
2018-11-13T08:05:46.684Z,12.52
2018-11-13T08:06:46.876Z,12.62
2018-11-13T08:07:46.775Z,12.62
2018-11-13T08:08:46.832Z,12.63
2018-11-13T08:09:46.894Z,12.56
2018-11-13T08:10:46.949Z,12.55
2018-11-13T08:11:47.006Z,12.48
2018-11-13T08:12:47.221Z,12.43
2018-11-13T08:13:47.122Z,12.63
2018-11-13T08:14:47.183Z,12.56
2018-11-13T08:15:47.240Z,12.52
2018-11-13T08:16:47.607Z,12.55
2018-11-13T08:17:47.366Z,12.73
2018-11-13T08:18:47.470Z,12.61
2018-11-13T08:19:47.472Z,12.76
2018-11-13T08:20:47.530Z,12.73
2018-11-13T08:21:47.683Z,12.44
2018-11-13T08:22:47.645Z,12.26
2018-11-13T08:23:47.705Z,12.33
2018-11-13T08:24:47.763Z,12.30
2018-11-13T08:25:48.390Z,12.41
2018-11-13T08:26:47.913Z,12.46
2018-11-13T08:27:47.939Z,12.52
2018-11-13T08:28:48.026Z,12.46
2018-11-13T08:29:48.054Z,12.41
2018-11-13T08:30:48.112Z,12.58
2018-11-13T08:31:48.174Z,12.63
2018-11-13T08:32:48.230Z,12.62
2018-11-13T08:33:48.289Z,12.66
2018-11-13T08:34:48.432Z,12.79
2018-11-13T08:35:48.407Z,12.55
2018-11-13T08:36:48.464Z,12.56
2018-11-13T08:37:48.523Z,12.62
2018-11-13T08:38:48.581Z,12.63
2018-11-13T08:39:48.639Z,12.62
2018-11-13T08:40:48.851Z,12.67
2018-11-13T08:41:48.764Z,12.73
2018-11-13T08:42:48.814Z,12.73
2018-11-13T08:43:49.302Z,12.87
2018-11-13T08:44:48.954Z,12.92
2018-11-13T08:45:48.988Z,12.94
2018-11-13T08:46:49.049Z,13.03
2018-11-13T08:47:49.418Z,13.03
2018-11-13T08:48:49.166Z,12.94
2018-11-13T08:49:49.223Z,13.03
2018-11-13T08:50:49.304Z,12.98
2018-11-13T08:51:49.342Z,12.99
2018-11-13T08:52:49.399Z,13.03
2018-11-13T08:53:49.457Z,13.04
2018-11-13T08:54:49.518Z,12.98
2018-11-13T08:55:49.576Z,12.99
2018-11-13T08:56:49.634Z,13.03
2018-11-13T08:57:49.692Z,13.09
2018-11-13T08:58:49.773Z,13.09
2018-11-13T08:59:49.810Z,13.12
2018-11-13T09:00:50.560Z,13.03
2018-11-13T09:01:49.929Z,13.12
2018-11-13T09:02:49.987Z,13.03
2018-11-13T09:03:50.046Z,13.12
2018-11-13T09:04:50.118Z,12.99
2018-11-13T09:05:50.873Z,13.14
2018-11-13T09:06:50.901Z,13.12
2018-11-13T09:07:50.971Z,12.95
2018-11-13T09:08:50.339Z,13.03
2018-11-13T09:09:50.431Z,13.12
2018-11-13T09:10:50.469Z,13.04
2018-11-13T09:11:50.632Z,13.09
2018-11-13T09:12:50.577Z,13.10
2018-11-13T09:13:50.632Z,13.17
2018-11-13T09:14:50.691Z,13.12
2018-11-13T09:15:50.756Z,13.16
2018-11-13T09:16:50.809Z,13.25
2018-11-13T09:17:51.372Z,13.25
2018-11-13T09:18:51.009Z,13.32
2018-11-13T09:19:50.986Z,13.35
2018-11-13T09:20:51.044Z,13.39
2018-11-13T09:21:51.176Z,13.41
2018-11-13T09:22:51.274Z,13.51
2018-11-13T09:23:51.224Z,13.46
2018-11-13T09:24:51.328Z,13.54
2018-11-13T09:25:51.428Z,13.62
2018-11-13T09:26:51.399Z,13.61
2018-11-13T09:27:51.456Z,13.62
2018-11-13T09:28:51.517Z,13.65
2018-11-13T09:29:51.610Z,13.66
2018-11-13T09:30:51.939Z,13.68
2018-11-13T09:31:51.776Z,13.63
2018-11-13T09:32:51.768Z,13.65
2018-11-13T09:33:51.812Z,13.65
2018-11-13T09:34:51.872Z,13.75
2018-11-13T09:35:51.970Z,13.79
2018-11-13T09:36:51.995Z,13.76
2018-11-13T09:37:52.048Z,13.84
2018-11-13T09:38:52.108Z,13.81
2018-11-13T09:39:52.167Z,13.91
2018-11-13T09:40:52.232Z,13.80
2018-11-13T09:41:52.290Z,13.72
2018-11-13T09:42:52.359Z,13.73
2018-11-13T09:43:52.608Z,13.73
2018-11-13T09:44:52.573Z,13.65
2018-11-13T09:45:52.856Z,13.65
2018-11-13T09:46:57.375Z,13.62
2018-11-13T09:47:52.652Z,13.61
2018-11-13T09:48:52.712Z,13.71
2018-11-13T09:49:52.762Z,13.61
2018-11-13T09:50:52.836Z,13.59
2018-11-13T09:51:52.898Z,13.62
2018-11-13T09:52:52.940Z,13.65
2018-11-13T09:53:53.002Z,13.63
2018-11-13T09:54:53.366Z,13.57
2018-11-13T09:55:53.115Z,13.62
2018-11-13T09:56:53.175Z,13.62
2018-11-13T09:57:53.234Z,13.55
2018-11-13T09:58:53.957Z,13.62
2018-11-13T09:59:53.409Z,13.66
2018-11-13T10:00:53.604Z,13.66
2018-11-13T10:01:53.948Z,13.65
2018-11-13T10:02:54.081Z,13.69
2018-11-13T10:03:54.109Z,13.66
2018-11-13T10:04:54.289Z,13.68
2018-11-13T10:05:53.739Z,13.63
2018-11-13T10:06:53.890Z,13.71
2018-11-13T10:07:53.824Z,13.75
2018-11-13T10:08:53.882Z,13.80
2018-11-13T10:09:53.940Z,13.81
2018-11-13T10:10:54.001Z,13.90
2018-11-13T10:11:54.060Z,13.91
2018-11-13T10:12:54.159Z,13.87
2018-11-13T10:13:54.177Z,13.88
2018-11-13T10:14:54.237Z,13.76
2018-11-13T10:15:54.296Z,13.81
2018-11-13T10:16:54.356Z,13.87
2018-11-13T10:17:54.516Z,13.94
2018-11-13T10:18:54.473Z,14.05
2018-11-13T10:19:54.534Z,13.99
2018-11-13T10:20:54.591Z,14.13
2018-11-13T10:21:54.652Z,14.09
2018-11-13T10:22:54.712Z,14.05
2018-11-13T10:23:54.771Z,14.05
2018-11-13T10:24:55.344Z,14.11
2018-11-13T10:25:55.417Z,14.17
2018-11-13T10:26:54.953Z,14.12
2018-11-13T10:27:55.013Z,14.12
2018-11-13T10:28:55.068Z,14.08
2018-11-13T10:29:55.160Z,14.08
2018-11-13T10:30:55.187Z,14.09
2018-11-13T10:31:55.257Z,14.20
2018-11-13T10:32:55.307Z,14.21
2018-11-13T10:33:55.366Z,14.23
2018-11-13T10:34:55.427Z,14.30
2018-11-13T10:35:55.485Z,14.19
2018-11-13T10:36:55.549Z,14.26
2018-11-13T10:37:56.192Z,14.34
2018-11-13T10:38:55.665Z,14.36
2018-11-13T10:39:55.742Z,14.20
2018-11-13T10:40:55.856Z,14.21
2018-11-13T10:41:55.856Z,14.21
2018-11-13T10:42:55.903Z,14.19
2018-11-13T10:43:56.288Z,14.26
2018-11-13T10:44:56.023Z,14.16
2018-11-13T10:45:56.082Z,14.20
2018-11-13T10:46:56.143Z,14.19
2018-11-13T10:47:56.203Z,14.13
2018-11-13T10:48:56.303Z,14.17
2018-11-13T10:49:56.320Z,14.24
2018-11-13T10:50:56.380Z,14.34
2018-11-13T10:51:56.441Z,14.38
2018-11-13T10:52:56.499Z,14.42
2018-11-13T10:53:56.561Z,14.48
2018-11-13T10:54:56.618Z,14.53
2018-11-13T10:55:56.684Z,14.44
2018-11-13T10:56:56.739Z,14.53
2018-11-13T10:57:56.797Z,14.41
2018-11-13T10:58:56.856Z,14.26
2018-11-13T10:59:56.917Z,14.20
2018-11-13T11:00:56.976Z,14.19
2018-11-13T11:01:57.037Z,14.05
2018-11-13T11:02:57.201Z,14.09
2018-11-13T11:03:57.154Z,14.08
2018-11-13T11:04:57.216Z,13.98
2018-11-13T11:05:57.273Z,14.04
2018-11-13T11:06:57.584Z,14.02
2018-11-13T11:07:57.393Z,14.01
2018-11-13T11:08:57.452Z,14.12
2018-11-13T11:09:58.123Z,14.21
2018-11-13T11:10:58.156Z,14.24
2018-11-13T11:11:58.312Z,14.30
2018-11-13T11:12:58.385Z,14.29
2018-11-13T11:13:57.954Z,14.36
2018-11-13T11:14:57.808Z,14.27
2018-11-13T11:15:57.870Z,14.42
2018-11-13T11:16:57.927Z,14.57
2018-11-13T11:17:58.037Z,14.74
2018-11-13T11:18:58.220Z,14.74
2018-11-13T11:19:58.106Z,14.82
2018-11-13T11:20:58.165Z,14.71
2018-11-13T11:21:58.223Z,14.64
2018-11-13T11:22:58.304Z,14.63
2018-11-13T11:23:58.398Z,14.45
2018-11-13T11:24:58.411Z,14.45
2018-11-13T11:25:58.464Z,14.44
2018-11-13T11:26:58.525Z,14.31
2018-11-13T11:27:58.746Z,14.26
2018-11-13T11:28:58.645Z,15.20
2018-11-13T11:29:58.704Z,15.89
2018-11-13T11:30:58.813Z,15.30
2018-11-13T11:31:58.824Z,14.75
2018-11-13T11:32:58.886Z,14.60
2018-11-13T11:33:58.942Z,14.56
2018-11-13T11:34:59.021Z,14.46
2018-11-13T11:35:59.063Z,14.45
2018-11-13T11:36:59.123Z,14.24
2018-11-13T11:37:59.181Z,14.41
2018-11-13T11:38:59.368Z,14.31
2018-11-13T11:39:59.301Z,14.24
2018-11-13T11:40:59.362Z,14.30
2018-11-13T11:41:59.421Z,14.19
2018-11-13T11:42:59.481Z,14.23
2018-11-13T11:43:59.541Z,14.34
2018-11-13T11:44:59.600Z,14.61
2018-11-13T11:45:59.661Z,14.54
2018-11-13T11:46:59.720Z,14.34
2018-11-13T11:47:59.779Z,14.21
2018-11-13T11:48:59.839Z,14.21
2018-11-13T11:49:59.898Z,14.16
2018-11-13T11:50:59.957Z,14.13
2018-11-13T11:52:00.029Z,14.12
2018-11-13T11:53:00.078Z,14.19
2018-11-13T11:54:00.207Z,14.16
2018-11-13T11:55:00.197Z,14.09
2018-11-13T11:56:00.257Z,14.08
2018-11-13T11:57:00.316Z,14.01
2018-11-13T11:58:00.376Z,14.12
2018-11-13T11:59:00.435Z,14.39
2018-11-13T12:00:00.495Z,15.18
2018-11-13T12:01:00.554Z,15.31
2018-11-13T12:02:00.642Z,15.28
2018-11-13T12:03:00.675Z,15.13
2018-11-13T12:04:00.736Z,14.93
2018-11-13T12:05:00.796Z,14.87
2018-11-13T12:06:00.854Z,15.04
2018-11-13T12:07:00.912Z,15.15
2018-11-13T12:08:00.973Z,15.07
2018-11-13T12:09:01.035Z,15.00
2018-11-13T12:10:01.100Z,15.01
2018-11-13T12:11:01.153Z,14.91
2018-11-13T12:12:01.231Z,14.78
2018-11-13T12:13:01.288Z,14.60
2018-11-13T12:14:01.339Z,14.52
2018-11-13T12:15:01.394Z,14.48
2018-11-13T12:16:01.456Z,14.66
2018-11-13T12:17:01.519Z,16.14
2018-11-13T12:18:01.573Z,17.17
2018-11-13T12:19:01.749Z,16.65
2018-11-13T12:20:01.696Z,15.91
2018-11-13T12:21:01.761Z,15.81
2018-11-13T12:22:01.815Z,17.02
2018-11-13T12:23:01.876Z,16.95
2018-11-13T12:24:01.941Z,17.86
2018-11-13T12:25:01.997Z,18.49
2018-11-13T12:26:02.059Z,18.31
2018-11-13T12:27:02.118Z,18.31
2018-11-13T12:28:02.178Z,17.86
2018-11-13T12:29:02.240Z,17.38
2018-11-13T12:30:02.301Z,16.91
2018-11-13T12:31:02.362Z,17.17
2018-11-13T12:32:02.426Z,18.31
2018-11-13T12:33:02.486Z,18.57
2018-11-13T12:34:02.545Z,18.38
2018-11-13T12:35:02.608Z,17.10
2018-11-13T12:36:02.670Z,16.47
2018-11-13T12:37:02.735Z,15.78
2018-11-13T12:38:02.793Z,16.26
2018-11-13T12:39:02.857Z,16.96
2018-11-13T12:40:02.918Z,16.84
2018-11-13T12:41:02.979Z,16.29
2018-11-13T12:42:03.040Z,15.80
2018-11-13T12:43:03.103Z,15.60
2018-11-13T12:44:03.160Z,16.27
2018-11-13T12:45:03.225Z,15.85
2018-11-13T12:46:03.309Z,15.41
2018-11-13T12:47:03.344Z,15.11
2018-11-13T12:48:03.406Z,14.94
2018-11-13T12:49:03.550Z,15.15
2018-11-13T12:50:03.527Z,15.16
2018-11-13T12:51:03.589Z,16.48
2018-11-13T12:52:03.650Z,17.30
2018-11-13T12:53:03.709Z,17.80